sensor_id;sensor_type;location;lat;lon;timestamp;pressure;altitude;pressure_sealevel;temperature
15709;BMP180;7954;51.914;8.420;2023-06-04T00:01:27;100850.19;;;20.12
15709;BMP180;7954;51.914;8.420;2023-06-04T00:03:55;100848.13;;;20.10
15709;BMP180;7954;51.914;8.420;2023-06-04T00:06:24;100851.69;;;20.05
15709;BMP180;7954;51.914;8.420;2023-06-04T00:08:52;100850.16;;;20.00
15709;BMP180;7954;51.914;8.420;2023-06-04T00:11:20;100852.13;;;19.96
15709;BMP180;7954;51.914;8.420;2023-06-04T00:13:48;100856.81;;;19.93
15709;BMP180;7954;51.914;8.420;2023-06-04T00:16:16;100854.72;;;19.90
15709;BMP180;7954;51.914;8.420;2023-06-04T00:18:44;100848.03;;;19.85
15709;BMP180;7954;51.914;8.420;2023-06-04T00:21:12;100849.06;;;19.80
15709;BMP180;7954;51.914;8.420;2023-06-04T00:23:43;100843.03;;;19.80
15709;BMP180;7954;51.914;8.420;2023-06-04T00:26:11;100840.34;;;19.73
15709;BMP180;7954;51.914;8.420;2023-06-04T00:28:39;100832.53;;;19.66
15709;BMP180;7954;51.914;8.420;2023-06-04T00:31:07;100833.25;;;19.65
15709;BMP180;7954;51.914;8.420;2023-06-04T00:33:35;100837.72;;;19.60
15709;BMP180;7954;51.914;8.420;2023-06-04T00:36:04;100838.97;;;19.57
15709;BMP180;7954;51.914;8.420;2023-06-04T00:38:32;100835.13;;;19.48
15709;BMP180;7954;51.914;8.420;2023-06-04T00:41:02;100841.72;;;19.46
15709;BMP180;7954;51.914;8.420;2023-06-04T00:43:30;100839.56;;;19.49
15709;BMP180;7954;51.914;8.420;2023-06-04T00:45:59;100837.59;;;19.41
15709;BMP180;7954;51.914;8.420;2023-06-04T00:48:27;100848.63;;;19.35
15709;BMP180;7954;51.914;8.420;2023-06-04T00:50:55;100841.00;;;19.29
15709;BMP180;7954;51.914;8.420;2023-06-04T00:53:25;100842.50;;;19.22
15709;BMP180;7954;51.914;8.420;2023-06-04T00:55:53;100845.38;;;19.18
15709;BMP180;7954;51.914;8.420;2023-06-04T00:58:23;100832.16;;;19.15
15709;BMP180;7954;51.914;8.420;2023-06-04T01:00:53;100834.47;;;19.13
15709;BMP180;7954;51.914;8.420;2023-06-04T01:03:25;100835.72;;;19.10
15709;BMP180;7954;51.914;8.420;2023-06-04T01:06:00;100831.56;;;19.05
15709;BMP180;7954;51.914;8.420;2023-06-04T01:08:30;100827.94;;;18.97
15709;BMP180;7954;51.914;8.420;2023-06-04T01:10:58;100829.75;;;18.98
15709;BMP180;7954;51.914;8.420;2023-06-04T01:13:29;100824.72;;;18.93
15709;BMP180;7954;51.914;8.420;2023-06-04T01:15:59;100825.22;;;18.90
15709;BMP180;7954;51.914;8.420;2023-06-04T01:18:28;100835.06;;;18.87
15709;BMP180;7954;51.914;8.420;2023-06-04T01:20:59;100827.88;;;18.85
15709;BMP180;7954;51.914;8.420;2023-06-04T01:23:33;100823.66;;;18.85
15709;BMP180;7954;51.914;8.420;2023-06-04T01:26:08;100818.94;;;18.88
15709;BMP180;7954;51.914;8.420;2023-06-04T01:28:40;100828.06;;;18.86
15709;BMP180;7954;51.914;8.420;2023-06-04T01:31:08;100809.97;;;18.85
15709;BMP180;7954;51.914;8.420;2023-06-04T01:33:37;100822.38;;;18.76
15709;BMP180;7954;51.914;8.420;2023-06-04T01:36:05;100827.91;;;18.79
15709;BMP180;7954;51.914;8.420;2023-06-04T01:38:36;100821.44;;;18.76
15709;BMP180;7954;51.914;8.420;2023-06-04T01:41:05;100824.00;;;18.76
15709;BMP180;7954;51.914;8.420;2023-06-04T01:43:33;100832.13;;;18.79
15709;BMP180;7954;51.914;8.420;2023-06-04T01:46:03;100817.97;;;18.75
15709;BMP180;7954;51.914;8.420;2023-06-04T01:48:31;100821.22;;;18.74
15709;BMP180;7954;51.914;8.420;2023-06-04T01:50:59;100810.59;;;18.71
15709;BMP180;7954;51.914;8.420;2023-06-04T01:53:27;100810.88;;;18.68
15709;BMP180;7954;51.914;8.420;2023-06-04T01:55:55;100819.47;;;18.68
15709;BMP180;7954;51.914;8.420;2023-06-04T01:58:23;100819.03;;;18.65
15709;BMP180;7954;51.914;8.420;2023-06-04T02:00:53;100818.81;;;18.64
15709;BMP180;7954;51.914;8.420;2023-06-04T02:03:22;100812.63;;;18.56
15709;BMP180;7954;51.914;8.420;2023-06-04T02:05:51;100817.72;;;18.56
15709;BMP180;7954;51.914;8.420;2023-06-04T02:08:19;100829.59;;;18.56
15709;BMP180;7954;51.914;8.420;2023-06-04T02:10:47;100814.97;;;18.55
15709;BMP180;7954;51.914;8.420;2023-06-04T02:13:15;100819.66;;;18.52
15709;BMP180;7954;51.914;8.420;2023-06-04T02:15:43;100821.53;;;18.53
15709;BMP180;7954;51.914;8.420;2023-06-04T02:18:13;100819.66;;;18.52
15709;BMP180;7954;51.914;8.420;2023-06-04T02:20:45;100823.84;;;18.51
15709;BMP180;7954;51.914;8.420;2023-06-04T02:23:14;100825.06;;;18.48
15709;BMP180;7954;51.914;8.420;2023-06-04T02:25:43;100827.63;;;18.48
15709;BMP180;7954;51.914;8.420;2023-06-04T02:28:12;100821.16;;;18.44
15709;BMP180;7954;51.914;8.420;2023-06-04T02:30:40;100826.47;;;18.46
15709;BMP180;7954;51.914;8.420;2023-06-04T02:33:08;100816.53;;;18.42
15709;BMP180;7954;51.914;8.420;2023-06-04T02:35:37;100826.06;;;18.43
15709;BMP180;7954;51.914;8.420;2023-06-04T02:38:06;100830.28;;;18.37
15709;BMP180;7954;51.914;8.420;2023-06-04T02:40:34;100829.84;;;18.34
15709;BMP180;7954;51.914;8.420;2023-06-04T02:43:02;100833.84;;;18.32
15709;BMP180;7954;51.914;8.420;2023-06-04T02:45:30;100829.00;;;18.28
15709;BMP180;7954;51.914;8.420;2023-06-04T02:47:58;100821.31;;;18.28
15709;BMP180;7954;51.914;8.420;2023-06-04T02:50:26;100828.13;;;18.22
15709;BMP180;7954;51.914;8.420;2023-06-04T02:52:53;100835.34;;;18.19
15709;BMP180;7954;51.914;8.420;2023-06-04T02:55:24;100827.00;;;18.14
15709;BMP180;7954;51.914;8.420;2023-06-04T02:57:52;100837.22;;;18.14
15709;BMP180;7954;51.914;8.420;2023-06-04T03:00:20;100839.81;;;18.09
15709;BMP180;7954;51.914;8.420;2023-06-04T03:02:49;100835.44;;;18.08
15709;BMP180;7954;51.914;8.420;2023-06-04T03:05:17;100837.59;;;18.00
15709;BMP180;7954;51.914;8.420;2023-06-04T03:07:45;100828.34;;;17.95
15709;BMP180;7954;51.914;8.420;2023-06-04T03:10:15;100836.72;;;17.94
15709;BMP180;7954;51.914;8.420;2023-06-04T03:12:45;100829.25;;;17.95
15709;BMP180;7954;51.914;8.420;2023-06-04T03:15:13;100832.53;;;17.94
15709;BMP180;7954;51.914;8.420;2023-06-04T03:17:41;100832.53;;;17.94
15709;BMP180;7954;51.914;8.420;2023-06-04T03:20:11;100834.88;;;17.93
15709;BMP180;7954;51.914;8.420;2023-06-04T03:22:38;100830.94;;;17.89
15709;BMP180;7954;51.914;8.420;2023-06-04T03:25:07;100831.75;;;17.77
15709;BMP180;7954;51.914;8.420;2023-06-04T03:27:35;100834.03;;;17.81
15709;BMP180;7954;51.914;8.420;2023-06-04T03:30:06;100835.91;;;17.82
15709;BMP180;7954;51.914;8.420;2023-06-04T03:32:35;100827.78;;;17.79
15709;BMP180;7954;51.914;8.420;2023-06-04T03:35:03;100827.06;;;17.80
15709;BMP180;7954;51.914;8.420;2023-06-04T03:37:32;100834.75;;;17.80
15709;BMP180;7954;51.914;8.420;2023-06-04T03:40:00;100832.88;;;17.79
15709;BMP180;7954;51.914;8.420;2023-06-04T03:42:33;100831.00;;;17.84
15709;BMP180;7954;51.914;8.420;2023-06-04T03:45:01;100838.44;;;17.82
15709;BMP180;7954;51.914;8.420;2023-06-04T03:47:30;100838.00;;;17.79
15709;BMP180;7954;51.914;8.420;2023-06-04T03:49:58;100846.13;;;17.77
15709;BMP180;7954;51.914;8.420;2023-06-04T03:52:30;100836.41;;;17.74
15709;BMP180;7954;51.914;8.420;2023-06-04T03:54:58;100845.91;;;17.75
15709;BMP180;7954;51.914;8.420;2023-06-04T03:57:27;100842.22;;;17.73
15709;BMP180;7954;51.914;8.420;2023-06-04T03:59:54;100845.22;;;17.76
15709;BMP180;7954;51.914;8.420;2023-06-04T04:02:23;100852.22;;;17.72
15709;BMP180;7954;51.914;8.420;2023-06-04T04:04:53;100843.84;;;17.73
15709;BMP180;7954;51.914;8.420;2023-06-04T04:07:23;100844.03;;;17.80
15709;BMP180;7954;51.914;8.420;2023-06-04T04:09:51;100843.34;;;17.81
15709;BMP180;7954;51.914;8.420;2023-06-04T04:12:19;100840.72;;;17.86
15709;BMP180;7954;51.914;8.420;2023-06-04T04:14:47;100839.75;;;17.91
15709;BMP180;7954;51.914;8.420;2023-06-04T04:17:16;100837.41;;;17.93
15709;BMP180;7954;51.914;8.420;2023-06-04T04:19:43;100843.00;;;17.96
15709;BMP180;7954;51.914;8.420;2023-06-04T04:22:14;100849.44;;;17.99
15709;BMP180;7954;51.914;8.420;2023-06-04T04:24:43;100843.84;;;18.02
15709;BMP180;7954;51.914;8.420;2023-06-04T04:27:12;100848.91;;;18.07
15709;BMP180;7954;51.914;8.420;2023-06-04T04:29:42;100848.63;;;18.11
15709;BMP180;7954;51.914;8.420;2023-06-04T04:32:13;100840.47;;;18.13
15709;BMP180;7954;51.914;8.420;2023-06-04T04:34:51;100852.53;;;18.20
15709;BMP180;7954;51.914;8.420;2023-06-04T04:37:22;100852.50;;;18.25
15709;BMP180;7954;51.914;8.420;2023-06-04T04:39:50;100846.63;;;18.32
15709;BMP180;7954;51.914;8.420;2023-06-04T04:42:19;100856.28;;;18.40
15709;BMP180;7954;51.914;8.420;2023-06-04T04:44:49;100846.22;;;18.47
15709;BMP180;7954;51.914;8.420;2023-06-04T04:47:17;100842.88;;;18.53
15709;BMP180;7954;51.914;8.420;2023-06-04T04:49:44;100846.31;;;18.59
15709;BMP180;7954;51.914;8.420;2023-06-04T04:52:16;100847.81;;;18.69
15709;BMP180;7954;51.914;8.420;2023-06-04T04:54:45;100851.25;;;18.75
15709;BMP180;7954;51.914;8.420;2023-06-04T04:57:13;100853.97;;;18.82
15709;BMP180;7954;51.914;8.420;2023-06-04T04:59:41;100855.22;;;18.91
15709;BMP180;7954;51.914;8.420;2023-06-04T05:02:09;100856.31;;;18.99
15709;BMP180;7954;51.914;8.420;2023-06-04T05:04:37;100853.84;;;19.06
15709;BMP180;7954;51.914;8.420;2023-06-04T05:07:06;100855.91;;;19.14
15709;BMP180;7954;51.914;8.420;2023-06-04T05:09:34;100854.91;;;19.19
15709;BMP180;7954;51.914;8.420;2023-06-04T05:12:04;100858.94;;;19.29
15709;BMP180;7954;51.914;8.420;2023-06-04T05:14:33;100854.88;;;19.36
15709;BMP180;7954;51.914;8.420;2023-06-04T05:17:02;100846.84;;;19.46
15709;BMP180;7954;51.914;8.420;2023-06-04T05:19:30;100840.69;;;19.51
15709;BMP180;7954;51.914;8.420;2023-06-04T05:21:59;100841.94;;;19.60
15709;BMP180;7954;51.914;8.420;2023-06-04T05:24:28;100851.59;;;19.68
15709;BMP180;7954;51.914;8.420;2023-06-04T05:26:56;100852.44;;;19.74
15709;BMP180;7954;51.914;8.420;2023-06-04T05:29:25;100844.16;;;19.82
15709;BMP180;7954;51.914;8.420;2023-06-04T05:31:53;100851.25;;;19.90
15709;BMP180;7954;51.914;8.420;2023-06-04T05:34:21;100848.84;;;19.97
15709;BMP180;7954;51.914;8.420;2023-06-04T05:36:49;100843.50;;;20.07
15709;BMP180;7954;51.914;8.420;2023-06-04T05:39:19;100843.81;;;20.16
15709;BMP180;7954;51.914;8.420;2023-06-04T05:41:50;100842.72;;;20.26
15709;BMP180;7954;51.914;8.420;2023-06-04T05:44:18;100843.94;;;20.35
15709;BMP180;7954;51.914;8.420;2023-06-04T05:46:47;100838.41;;;20.45
15709;BMP180;7954;51.914;8.420;2023-06-04T05:49:16;100837.59;;;20.51
15709;BMP180;7954;51.914;8.420;2023-06-04T05:51:44;100845.78;;;20.61
15709;BMP180;7954;51.914;8.420;2023-06-04T05:54:12;100835.72;;;20.63
15709;BMP180;7954;51.914;8.420;2023-06-04T05:56:39;100843.00;;;20.72
15709;BMP180;7954;51.914;8.420;2023-06-04T05:59:07;100846.81;;;20.81
15709;BMP180;7954;51.914;8.420;2023-06-04T06:01:36;100839.59;;;20.91
15709;BMP180;7954;51.914;8.420;2023-06-04T06:04:06;100838.63;;;21.03
15709;BMP180;7954;51.914;8.420;2023-06-04T06:06:34;100845.72;;;21.11
15709;BMP180;7954;51.914;8.420;2023-06-04T06:09:02;100840.88;;;21.19
15709;BMP180;7954;51.914;8.420;2023-06-04T06:11:31;100848.81;;;21.28
15709;BMP180;7954;51.914;8.420;2023-06-04T06:13:59;100850.75;;;21.35
15709;BMP180;7954;51.914;8.420;2023-06-04T06:16:27;100842.38;;;21.43
15709;BMP180;7954;51.914;8.420;2023-06-04T06:18:55;100848.44;;;21.56
15709;BMP180;7954;51.914;8.420;2023-06-04T06:21:24;100847.78;;;21.64
15709;BMP180;7954;51.914;8.420;2023-06-04T06:23:52;100865.69;;;21.77
15709;BMP180;7954;51.914;8.420;2023-06-04T06:26:20;100853.31;;;21.87
15709;BMP180;7954;51.914;8.420;2023-06-04T06:28:48;100849.75;;;21.98
15709;BMP180;7954;51.914;8.420;2023-06-04T06:31:16;100844.09;;;22.08
15709;BMP180;7954;51.914;8.420;2023-06-04T06:33:44;100861.81;;;22.19
15709;BMP180;7954;51.914;8.420;2023-06-04T06:36:12;100855.47;;;22.29
15709;BMP180;7954;51.914;8.420;2023-06-04T06:38:42;100860.50;;;22.35
15709;BMP180;7954;51.914;8.420;2023-06-04T06:41:10;100871.59;;;22.48
15709;BMP180;7954;51.914;8.420;2023-06-04T06:43:39;100860.84;;;22.57
15709;BMP180;7954;51.914;8.420;2023-06-04T06:46:08;100853.91;;;22.70
15709;BMP180;7954;51.914;8.420;2023-06-04T06:48:36;100857.84;;;22.80
15709;BMP180;7954;51.914;8.420;2023-06-04T06:51:04;100856.56;;;22.91
15709;BMP180;7954;51.914;8.420;2023-06-04T06:53:34;100856.28;;;23.02
15709;BMP180;7954;51.914;8.420;2023-06-04T06:56:04;100856.88;;;23.13
15709;BMP180;7954;51.914;8.420;2023-06-04T06:58:31;100866.13;;;23.25
15709;BMP180;7954;51.914;8.420;2023-06-04T07:01:00;100864.31;;;23.38
15709;BMP180;7954;51.914;8.420;2023-06-04T07:03:28;100872.84;;;23.51
15709;BMP180;7954;51.914;8.420;2023-06-04T07:05:56;100865.66;;;23.62
15709;BMP180;7954;51.914;8.420;2023-06-04T07:08:24;100871.97;;;23.71
15709;BMP180;7954;51.914;8.420;2023-06-04T07:10:52;100866.63;;;23.84
15709;BMP180;7954;51.914;8.420;2023-06-04T07:13:22;100865.88;;;23.92
15709;BMP180;7954;51.914;8.420;2023-06-04T07:15:50;100861.31;;;24.03
15709;BMP180;7954;51.914;8.420;2023-06-04T07:18:18;100853.53;;;24.17
15709;BMP180;7954;51.914;8.420;2023-06-04T07:20:46;100859.25;;;24.28
15709;BMP180;7954;51.914;8.420;2023-06-04T07:23:13;100853.91;;;24.41
15709;BMP180;7954;51.914;8.420;2023-06-04T07:25:42;100850.75;;;24.50
15709;BMP180;7954;51.914;8.420;2023-06-04T07:28:10;100852.56;;;24.58
15709;BMP180;7954;51.914;8.420;2023-06-04T07:30:39;100854.94;;;24.77
15709;BMP180;7954;51.914;8.420;2023-06-04T07:33:07;100852.47;;;24.86
15709;BMP180;7954;51.914;8.420;2023-06-04T07:35:35;100853.19;;;24.92
15709;BMP180;7954;51.914;8.420;2023-06-04T07:38:03;100856.28;;;25.03
15709;BMP180;7954;51.914;8.420;2023-06-04T07:40:31;100863.66;;;25.14
15709;BMP180;7954;51.914;8.420;2023-06-04T07:42:59;100851.78;;;25.23
15709;BMP180;7954;51.914;8.420;2023-06-04T07:45:26;100855.94;;;25.36
15709;BMP180;7954;51.914;8.420;2023-06-04T07:48:00;100852.59;;;25.44
15709;BMP180;7954;51.914;8.420;2023-06-04T07:50:28;100855.69;;;25.49
15709;BMP180;7954;51.914;8.420;2023-06-04T07:53:01;100853.78;;;25.62
15709;BMP180;7954;51.914;8.420;2023-06-04T07:55:29;100850.94;;;25.67
15709;BMP180;7954;51.914;8.420;2023-06-04T07:57:59;100852.78;;;25.75
15709;BMP180;7954;51.914;8.420;2023-06-04T08:00:30;100851.97;;;25.83
15709;BMP180;7954;51.914;8.420;2023-06-04T08:02:58;100843.97;;;25.89
15709;BMP180;7954;51.914;8.420;2023-06-04T08:05:28;100854.97;;;26.01
15709;BMP180;7954;51.914;8.420;2023-06-04T08:07:56;100851.72;;;26.11
15709;BMP180;7954;51.914;8.420;2023-06-04T08:10:24;100854.84;;;26.15
15709;BMP180;7954;51.914;8.420;2023-06-04T08:12:53;100850.34;;;26.21
15709;BMP180;7954;51.914;8.420;2023-06-04T08:15:22;100851.69;;;26.33
15709;BMP180;7954;51.914;8.420;2023-06-04T08:17:49;100853.66;;;26.43
15709;BMP180;7954;51.914;8.420;2023-06-04T08:20:17;100863.88;;;26.57
15709;BMP180;7954;51.914;8.420;2023-06-04T08:22:47;100864.56;;;26.62
15709;BMP180;7954;51.914;8.420;2023-06-04T08:25:16;100858.53;;;26.70
15709;BMP180;7954;51.914;8.420;2023-06-04T08:27:44;100846.66;;;26.72
15709;BMP180;7954;51.914;8.420;2023-06-04T08:30:13;100854.03;;;26.76
15709;BMP180;7954;51.914;8.420;2023-06-04T08:32:40;100854.38;;;26.79
15709;BMP180;7954;51.914;8.420;2023-06-04T08:35:09;100857.81;;;26.87
15709;BMP180;7954;51.914;8.420;2023-06-04T08:37:37;100858.38;;;26.84
15709;BMP180;7954;51.914;8.420;2023-06-04T08:40:09;100854.34;;;26.95
15709;BMP180;7954;51.914;8.420;2023-06-04T08:42:41;100852.94;;;27.05
15709;BMP180;7954;51.914;8.420;2023-06-04T08:45:10;100859.16;;;27.14
15709;BMP180;7954;51.914;8.420;2023-06-04T08:47:43;100855.69;;;27.22
15709;BMP180;7954;51.914;8.420;2023-06-04T08:50:12;100860.81;;;27.29
15709;BMP180;7954;51.914;8.420;2023-06-04T08:52:41;100859.03;;;27.36
15709;BMP180;7954;51.914;8.420;2023-06-04T08:55:11;100862.00;;;27.48
15709;BMP180;7954;51.914;8.420;2023-06-04T08:57:40;100859.41;;;27.48
15709;BMP180;7954;51.914;8.420;2023-06-04T09:00:09;100860.97;;;27.54
15709;BMP180;7954;51.914;8.420;2023-06-04T09:02:40;100857.22;;;27.59
15709;BMP180;7954;51.914;8.420;2023-06-04T09:05:08;100859.28;;;27.55
15709;BMP180;7954;51.914;8.420;2023-06-04T09:07:39;100855.38;;;27.58
15709;BMP180;7954;51.914;8.420;2023-06-04T09:10:10;100861.72;;;27.69
15709;BMP180;7954;51.914;8.420;2023-06-04T09:12:42;100857.00;;;27.73
15709;BMP180;7954;51.914;8.420;2023-06-04T09:15:11;100858.41;;;27.78
15709;BMP180;7954;51.914;8.420;2023-06-04T09:17:39;100865.97;;;27.92
15709;BMP180;7954;51.914;8.420;2023-06-04T09:20:08;100862.34;;;27.98
15709;BMP180;7954;51.914;8.420;2023-06-04T09:22:45;100868.00;;;28.03
15709;BMP180;7954;51.914;8.420;2023-06-04T09:25:23;100870.22;;;28.15
15709;BMP180;7954;51.914;8.420;2023-06-04T09:27:52;100855.63;;;28.24
15709;BMP180;7954;51.914;8.420;2023-06-04T09:30:22;100862.63;;;28.25
15709;BMP180;7954;51.914;8.420;2023-06-04T09:32:50;100866.19;;;28.26
15709;BMP180;7954;51.914;8.420;2023-06-04T09:35:20;100861.28;;;28.29
15709;BMP180;7954;51.914;8.420;2023-06-04T09:37:52;100853.97;;;28.33
15709;BMP180;7954;51.914;8.420;2023-06-04T09:40:22;100847.56;;;28.38
15709;BMP180;7954;51.914;8.420;2023-06-04T09:42:51;100845.59;;;28.44
15709;BMP180;7954;51.914;8.420;2023-06-04T09:45:29;100856.97;;;28.61
15709;BMP180;7954;51.914;8.420;2023-06-04T09:47:57;100862.94;;;28.69
15709;BMP180;7954;51.914;8.420;2023-06-04T09:50:27;100854.69;;;28.73
15709;BMP180;7954;51.914;8.420;2023-06-04T09:52:55;100855.66;;;28.82
15709;BMP180;7954;51.914;8.420;2023-06-04T09:55:25;100850.75;;;28.85
15709;BMP180;7954;51.914;8.420;2023-06-04T09:57:53;100842.81;;;28.92
15709;BMP180;7954;51.914;8.420;2023-06-04T10:00:22;100841.28;;;28.94
15709;BMP180;7954;51.914;8.420;2023-06-04T10:02:55;100853.50;;;28.95
15709;BMP180;7954;51.914;8.420;2023-06-04T10:05:24;100845.72;;;29.03
15709;BMP180;7954;51.914;8.420;2023-06-04T10:07:54;100843.72;;;29.09
15709;BMP180;7954;51.914;8.420;2023-06-04T10:10:26;100852.31;;;29.17
15709;BMP180;7954;51.914;8.420;2023-06-04T10:13:00;100844.63;;;29.26
15709;BMP180;7954;51.914;8.420;2023-06-04T10:15:29;100845.28;;;29.32
15709;BMP180;7954;51.914;8.420;2023-06-04T10:18:01;100845.28;;;29.32
15709;BMP180;7954;51.914;8.420;2023-06-04T10:20:30;100844.06;;;29.37
15709;BMP180;7954;51.914;8.420;2023-06-04T10:23:00;100838.22;;;29.48
15709;BMP180;7954;51.914;8.420;2023-06-04T10:25:30;100836.06;;;29.44
15709;BMP180;7954;51.914;8.420;2023-06-04T10:27:59;100843.13;;;29.45
15709;BMP180;7954;51.914;8.420;2023-06-04T10:30:30;100844.50;;;29.50
15709;BMP180;7954;51.914;8.420;2023-06-04T10:32:58;100836.03;;;29.61
15709;BMP180;7954;51.914;8.420;2023-06-04T10:35:31;100853.66;;;29.64
15709;BMP180;7954;51.914;8.420;2023-06-04T10:38:09;100840.16;;;29.68
15709;BMP180;7954;51.914;8.420;2023-06-04T10:40:39;100846.44;;;29.78
15709;BMP180;7954;51.914;8.420;2023-06-04T10:43:08;100842.59;;;29.83
15709;BMP180;7954;51.914;8.420;2023-06-04T10:45:37;100834.94;;;29.93
15709;BMP180;7954;51.914;8.420;2023-06-04T10:48:06;100838.56;;;30.03
15709;BMP180;7954;51.914;8.420;2023-06-04T10:50:47;100829.13;;;30.14
15709;BMP180;7954;51.914;8.420;2023-06-04T10:53:17;100821.16;;;30.21
15709;BMP180;7954;51.914;8.420;2023-06-04T10:55:47;100833.41;;;30.22
15709;BMP180;7954;51.914;8.420;2023-06-04T10:58:15;100827.44;;;30.23
15709;BMP180;7954;51.914;8.420;2023-06-04T11:00:45;100825.38;;;30.29
15709;BMP180;7954;51.914;8.420;2023-06-04T11:03:16;100821.75;;;30.27
15709;BMP180;7954;51.914;8.420;2023-06-04T11:05:45;100826.94;;;30.27
15709;BMP180;7954;51.914;8.420;2023-06-04T11:08:14;100822.31;;;30.33
15709;BMP180;7954;51.914;8.420;2023-06-04T11:10:46;100818.91;;;30.34
15709;BMP180;7954;51.914;8.420;2023-06-04T11:13:14;100820.75;;;30.35
15709;BMP180;7954;51.914;8.420;2023-06-04T11:15:43;100824.13;;;30.34
15709;BMP180;7954;51.914;8.420;2023-06-04T11:18:15;100821.03;;;30.46
15709;BMP180;7954;51.914;8.420;2023-06-04T11:20:44;100818.81;;;30.59
15709;BMP180;7954;51.914;8.420;2023-06-04T11:23:13;100819.91;;;30.61
15709;BMP180;7954;51.914;8.420;2023-06-04T11:25:42;100821.44;;;30.59
15709;BMP180;7954;51.914;8.420;2023-06-04T11:28:15;100817.69;;;30.65
15709;BMP180;7954;51.914;8.420;2023-06-04T11:30:56;100817.78;;;30.75
15709;BMP180;7954;51.914;8.420;2023-06-04T11:33:25;100811.88;;;30.86
15709;BMP180;7954;51.914;8.420;2023-06-04T11:35:53;100811.59;;;30.83
15709;BMP180;7954;51.914;8.420;2023-06-04T11:38:21;100817.09;;;30.86
15709;BMP180;7954;51.914;8.420;2023-06-04T11:40:57;100800.41;;;30.94
15709;BMP180;7954;51.914;8.420;2023-06-04T11:43:26;100811.13;;;31.06
15709;BMP180;7954;51.914;8.420;2023-06-04T11:45:55;100807.94;;;31.18
15709;BMP180;7954;51.914;8.420;2023-06-04T11:48:23;100802.34;;;31.24
15709;BMP180;7954;51.914;8.420;2023-06-04T11:50:52;100813.44;;;31.21
15709;BMP180;7954;51.914;8.420;2023-06-04T11:53:20;100796.50;;;31.26
15709;BMP180;7954;51.914;8.420;2023-06-04T11:55:48;100800.44;;;31.31
15709;BMP180;7954;51.914;8.420;2023-06-04T11:58:16;100800.69;;;31.34
15709;BMP180;7954;51.914;8.420;2023-06-04T12:00:46;100797.63;;;31.38
15709;BMP180;7954;51.914;8.420;2023-06-04T12:03:14;100801.03;;;31.47
15709;BMP180;7954;51.914;8.420;2023-06-04T12:05:42;100796.66;;;31.56
15709;BMP180;7954;51.914;8.420;2023-06-04T12:08:10;100796.66;;;31.56
15709;BMP180;7954;51.914;8.420;2023-06-04T12:10:39;100793.84;;;31.63
15709;BMP180;7954;51.914;8.420;2023-06-04T12:13:08;100792.00;;;31.62
15709;BMP180;7954;51.914;8.420;2023-06-04T12:15:36;100784.06;;;31.70
15709;BMP180;7954;51.914;8.420;2023-06-04T12:18:05;100795.47;;;31.81
15709;BMP180;7954;51.914;8.420;2023-06-04T12:20:34;100796.13;;;31.88
15709;BMP180;7954;51.914;8.420;2023-06-04T12:23:03;100796.69;;;31.94
15709;BMP180;7954;51.914;8.420;2023-06-04T12:25:32;100796.28;;;31.99
15709;BMP180;7954;51.914;8.420;2023-06-04T12:28:00;100791.25;;;32.11
15709;BMP180;7954;51.914;8.420;2023-06-04T12:30:35;100785.22;;;32.12
15709;BMP180;7954;51.914;8.420;2023-06-04T12:33:05;100789.69;;;32.13
15709;BMP180;7954;51.914;8.420;2023-06-04T12:35:33;100795.34;;;32.27
15709;BMP180;7954;51.914;8.420;2023-06-04T12:38:03;100786.56;;;32.47
15709;BMP180;7954;51.914;8.420;2023-06-04T12:40:32;100787.88;;;33.01
15709;BMP180;7954;51.914;8.420;2023-06-04T12:43:00;100816.09;;;34.71
15709;BMP180;7954;51.914;8.420;2023-06-04T12:45:28;100809.47;;;36.36
15709;BMP180;7954;51.914;8.420;2023-06-04T12:47:56;100809.75;;;37.78
15709;BMP180;7954;51.914;8.420;2023-06-04T12:50:26;100797.81;;;39.50
15709;BMP180;7954;51.914;8.420;2023-06-04T12:52:54;100791.66;;;41.07
15709;BMP180;7954;51.914;8.420;2023-06-04T12:55:22;100781.34;;;42.36
15709;BMP180;7954;51.914;8.420;2023-06-04T12:57:53;100787.41;;;43.29
15709;BMP180;7954;51.914;8.420;2023-06-04T13:00:21;100788.09;;;44.09
15709;BMP180;7954;51.914;8.420;2023-06-04T13:02:50;100773.38;;;44.89
15709;BMP180;7954;51.914;8.420;2023-06-04T13:05:18;100776.91;;;45.62
15709;BMP180;7954;51.914;8.420;2023-06-04T13:07:47;100781.72;;;46.28
15709;BMP180;7954;51.914;8.420;2023-06-04T13:10:16;100789.31;;;47.05
15709;BMP180;7954;51.914;8.420;2023-06-04T13:12:45;100792.63;;;47.61
15709;BMP180;7954;51.914;8.420;2023-06-04T13:15:13;100785.03;;;48.17
15709;BMP180;7954;51.914;8.420;2023-06-04T13:17:41;100792.31;;;48.21
15709;BMP180;7954;51.914;8.420;2023-06-04T13:20:10;100787.81;;;48.62
15709;BMP180;7954;51.914;8.420;2023-06-04T13:22:38;100776.41;;;49.19
15709;BMP180;7954;51.914;8.420;2023-06-04T13:25:08;100784.34;;;49.61
15709;BMP180;7954;51.914;8.420;2023-06-04T13:27:36;100776.94;;;50.05
15709;BMP180;7954;51.914;8.420;2023-06-04T13:30:05;100782.72;;;50.31
15709;BMP180;7954;51.914;8.420;2023-06-04T13:32:34;100790.16;;;50.52
15709;BMP180;7954;51.914;8.420;2023-06-04T13:35:02;100790.69;;;50.93
15709;BMP180;7954;51.914;8.420;2023-06-04T13:37:30;100799.19;;;51.35
15709;BMP180;7954;51.914;8.420;2023-06-04T13:39:58;100798.56;;;51.67
15709;BMP180;7954;51.914;8.420;2023-06-04T13:42:27;100789.94;;;52.18
15709;BMP180;7954;51.914;8.420;2023-06-04T13:44:56;100793.59;;;52.27
15709;BMP180;7954;51.914;8.420;2023-06-04T13:47:24;100793.63;;;52.36
15709;BMP180;7954;51.914;8.420;2023-06-04T13:49:52;100790.13;;;52.58
15709;BMP180;7954;51.914;8.420;2023-06-04T13:52:20;100798.41;;;53.04
15709;BMP180;7954;51.914;8.420;2023-06-04T13:54:48;100799.38;;;53.43
15709;BMP180;7954;51.914;8.420;2023-06-04T13:57:17;100798.44;;;53.67
15709;BMP180;7954;51.914;8.420;2023-06-04T13:59:48;100795.72;;;53.72
15709;BMP180;7954;51.914;8.420;2023-06-04T14:02:16;100795.72;;;53.99
15709;BMP180;7954;51.914;8.420;2023-06-04T14:04:44;100800.19;;;54.08
15709;BMP180;7954;51.914;8.420;2023-06-04T14:07:13;100798.19;;;54.62
15709;BMP180;7954;51.914;8.420;2023-06-04T14:09:41;100796.13;;;55.07
15709;BMP180;7954;51.914;8.420;2023-06-04T14:12:09;100795.16;;;55.18
15709;BMP180;7954;51.914;8.420;2023-06-04T14:14:37;100799.75;;;55.05
15709;BMP180;7954;51.914;8.420;2023-06-04T14:17:07;100803.28;;;55.15
15709;BMP180;7954;51.914;8.420;2023-06-04T14:19:34;100803.03;;;55.50